Time;durP1;ratioP1;P1;durP2;ratioP2;P2;SDS_P1;SDS_P2;PMS_P1;PMS_P2;Temp;Humidity;BMP_temperature;BMP_pressure;BME280_temperature;BME280_humidity;BME280_pressure;Samples;Min_cycle;Max_cycle;Signal;HPM_P1;HPM_P2
2023/01/03 00:01:12;;;;;;;18.00;9.93;;;;;;;15.13;46.22;102604.81;5089159;28;20051;-67
2023/01/03 00:03:38;;;;;;;21.80;10.03;;;;;;;14.98;45.51;102608.31;5088928;28;20058;-66
2023/01/03 00:06:03;;;;;;;15.53;8.40;;;;;;;15.06;45.97;102615.31;5089977;28;20028;-67
2023/01/03 00:08:29;;;;;;;17.07;8.63;;;;;;;15.44;44.57;102609.13;5092451;28;20296;-67
2023/01/03 00:10:54;;;;;;;13.67;8.30;;;;;;;15.15;45.66;102613.56;5089208;28;20024;-66
2023/01/03 00:13:19;;;;;;;16.23;9.43;;;;;;;15.44;45.07;102611.78;5090711;28;20028;-67
2023/01/03 00:15:45;;;;;;;13.40;8.30;;;;;;;15.23;44.65;102617.06;5100105;28;20751;-67
2023/01/03 00:18:10;;;;;;;19.63;10.60;;;;;;;14.99;45.08;102617.94;5092593;28;20123;-67
2023/01/03 00:20:36;;;;;;;24.57;10.97;;;;;;;15.02;45.22;102624.09;5091613;28;20433;-67
2023/01/03 00:23:01;;;;;;;17.00;8.97;;;;;;;14.86;45.26;102627.63;5090006;28;20114;-67
2023/01/03 00:25:28;;;;;;;14.63;9.03;;;;;;;14.87;45.32;102624.13;5089763;28;20020;-67
2023/01/03 00:27:53;;;;;;;16.80;9.03;;;;;;;15.03;45.19;102622.34;5091974;28;20383;-67
2023/01/03 00:30:19;;;;;;;17.27;8.03;;;;;;;15.01;44.93;102621.47;5096173;28;20023;-66
2023/01/03 00:32:44;;;;;;;13.27;7.97;;;;;;;14.98;44.54;102619.72;5112567;28;20023;-67
2023/01/03 00:35:09;;;;;;;13.83;7.70;;;;;;;14.68;44.80;102621.44;5110520;28;20383;-66
2023/01/03 00:37:35;;;;;;;16.30;6.87;;;;;;;14.82;44.50;102620.59;5110301;28;20103;-66
2023/01/03 00:40:00;;;;;;;14.93;7.37;;;;;;;14.74;45.08;102624.09;5090475;28;20110;-66
2023/01/03 00:42:26;;;;;;;11.73;7.23;;;;;;;14.52;45.07;102622.25;5089261;28;20032;-67
2023/01/03 00:44:51;;;;;;;18.53;7.43;;;;;;;14.75;45.06;102622.34;5090591;28;20115;-66
2023/01/03 00:47:16;;;;;;;11.67;7.10;;;;;;;14.75;45.34;102630.22;5090355;28;20024;-67
2023/01/03 00:49:42;;;;;;;17.70;6.90;;;;;;;14.79;45.41;102631.13;5073996;28;20484;-67
2023/01/03 00:52:07;;;;;;;13.03;7.17;;;;;;;14.78;44.64;102629.38;5084373;28;20111;-66
2023/01/03 00:54:33;;;;;;;12.57;7.53;;;;;;;14.81;44.90;102634.63;5088094;28;20821;-67
2023/01/03 00:56:58;;;;;;;21.23;8.07;;;;;;;14.66;45.26;102624.94;5091138;28;20023;-67
2023/01/03 00:59:24;;;;;;;18.93;8.30;;;;;;;14.74;44.68;102637.25;5088834;28;20447;-67
2023/01/03 01:01:53;;;;;;;18.47;7.93;;;;;;;14.31;45.93;102629.22;5105515;28;20048;-67
2023/01/03 01:04:29;;;;;;;24.63;8.77;;;;;;;14.26;46.62;102636.25;5110696;28;20076;-66
2023/01/03 01:07:01;;;;;;;16.23;8.03;;;;;;;14.70;46.26;102634.59;5094028;28;20024;-67
2023/01/03 01:09:35;;;;;;;17.92;9.13;;;;;;;14.78;45.71;102632.00;5098809;28;20024;-66
2023/01/03 01:12:02;;;;;;;18.00;9.73;;;;;;;14.68;46.78;102634.59;5091630;28;20444;-66
2023/01/03 01:14:32;;;;;;;18.87;10.00;;;;;;;15.06;45.51;102625.00;5093188;28;20020;-67
2023/01/03 01:16:59;;;;;;;20.37;9.97;;;;;;;15.04;45.83;102625.00;5090737;28;20032;-66
2023/01/03 01:19:28;;;;;;;21.40;9.63;;;;;;;14.93;45.46;102630.25;5093225;28;20031;-67
2023/01/03 01:21:54;;;;;;;16.17;10.07;;;;;;;14.97;45.71;102628.50;5109765;28;20069;-66
2023/01/03 01:24:20;;;;;;;21.17;10.53;;;;;;;14.96;45.48;102626.75;5116979;27;20035;-67
2023/01/03 01:26:46;;;;;;;18.40;10.30;;;;;;;14.88;45.68;102626.75;5092428;28;20051;-67
2023/01/03 01:29:13;;;;;;;24.10;11.53;;;;;;;15.05;44.96;102626.72;5092301;28;20031;-67
2023/01/03 01:31:40;;;;;;;20.47;10.23;;;;;;;14.86;45.57;102622.34;5110899;28;20102;-66
2023/01/03 01:34:05;;;;;;;27.17;10.47;;;;;;;14.79;45.43;102625.88;5111255;28;20031;-66
2023/01/03 01:36:36;;;;;;;21.17;11.37;;;;;;;14.49;45.79;102627.53;5099958;27;20031;-67
2023/01/03 01:39:05;;;;;;;23.67;12.10;;;;;;;14.74;44.98;102632.00;5099445;28;20067;-66
2023/01/03 01:44:54;;;;;;;23.37;11.67;;;;;;;14.26;46.40;102636.25;5110956;28;20043;-67
2023/01/03 01:47:27;;;;;;;31.08;15.10;;;;;;;14.10;46.54;102637.06;5111330;28;20034;-66
2023/01/03 01:50:17;;;;;;;32.40;16.17;;;;;;;14.32;46.32;102633.63;5109529;28;20069;-66
2023/01/03 01:53:09;;;;;;;45.10;17.27;;;;;;;14.37;47.03;102650.31;5115433;28;20028;-67
2023/01/03 01:55:58;;;;;;;32.57;15.73;;;;;;;14.66;45.70;102652.16;5108811;28;20020;-67
2023/01/03 01:58:28;;;;;;;50.90;17.57;;;;;;;14.30;46.69;102659.06;5092204;28;20065;-66
2023/01/03 02:00:54;;;;;;;38.67;16.70;;;;;;;14.16;46.90;102660.75;5110014;28;20079;-67
2023/01/03 02:03:19;;;;;;;138.10;19.03;;;;;;;14.15;47.33;102659.88;5109428;28;20114;-66
2023/01/03 02:05:49;;;;;;;91.10;17.47;;;;;;;14.39;46.91;102660.84;5091137;28;20036;-67
2023/01/03 02:08:15;;;;;;;89.27;17.27;;;;;;;14.41;46.82;102666.97;5092606;28;20122;-66
2023/01/03 02:11:00;;;;;;;198.37;17.67;;;;;;;14.78;45.30;102653.91;5108626;28;20119;-67
2023/01/03 02:14:03;;;;;;;161.57;17.50;;;;;;;14.60;46.34;102657.38;5090375;28;20165;-66
2023/01/03 02:16:56;;;;;;;155.73;17.07;;;;;;;14.80;45.32;102654.81;5092606;28;20027;-67
2023/01/03 02:19:36;;;;;;;281.47;19.27;;;;;;;14.92;45.08;102653.97;5122193;28;20731;-66
2023/01/03 02:22:38;;;;;;;316.43;20.40;;;;;;;14.18;46.79;102659.03;5131592;27;20031;-67
2023/01/03 02:25:41;;;;;;;187.30;16.70;;;;;;;14.03;47.81;102652.81;5094501;28;20406;-67
2023/01/03 02:28:23;;;;;;;187.40;15.83;;;;;;;14.51;46.09;102657.38;5096117;28;20038;-67
2023/01/03 02:30:57;;;;;;;101.90;13.95;;;;;;;14.31;46.99;102654.66;5114562;28;20032;-66
2023/01/03 02:33:53;;;;;;;156.00;16.37;;;;;;;14.20;46.81;102647.59;5129270;27;20032;-67
2023/01/03 02:36:26;;;;;;;184.90;17.20;;;;;;;14.58;46.28;102645.97;5115000;27;20072;-67
2023/01/03 02:39:09;;;;;;;135.70;17.77;;;;;;;14.49;46.44;102646.81;5097160;28;20043;-67
2023/01/03 02:41:44;;;;;;;144.90;17.83;;;;;;;14.18;46.77;102654.63;5113114;28;20027;-67
2023/01/03 02:44:33;;;;;;;86.47;14.20;;;;;;;14.23;46.95;102657.25;5096581;28;20032;-66
2023/01/03 02:47:08;;;;;;;186.93;15.80;;;;;;;14.41;45.90;102657.34;5095899;28;20176;-66
2023/01/03 02:49:56;;;;;;;171.20;16.50;;;;;;;13.92;47.01;102657.13;5093857;28;20024;-66
2023/01/03 02:52:26;;;;;;;192.17;17.30;;;;;;;13.50;48.17;102654.25;5112421;28;20050;-66
2023/01/03 02:55:05;;;;;;;215.87;17.07;;;;;;;13.74;47.92;102650.91;5112546;27;20168;-67
2023/01/03 02:57:38;;;;;;;161.73;15.37;;;;;;;14.16;46.35;102642.34;5095684;28;20038;-66
2023/01/03 03:00:15;;;;;;;;;;;;;;;14.02;46.84;102643.16;5095524;28;20028;-66
2023/01/03 03:02:48;;;;;;;129.73;17.53;;;;;;;13.97;46.55;102639.66;5113109;27;19919;-67
2023/01/03 03:05:37;;;;;;;169.27;19.53;;;;;;;13.73;46.72;102646.50;5116946;27;20499;-67
2023/01/03 03:08:02;;;;;;;92.90;16.80;;;;;;;14.19;46.44;102639.72;5121014;27;20490;-66
2023/01/03 03:13:28;;;;;;;175.50;20.57;;;;;;;13.21;48.65;102640.88;5112935;28;20119;-67
2023/01/03 03:15:59;;;;;;;153.07;19.10;;;;;;;13.52;48.05;102643.78;5095326;28;20024;-67
2023/01/03 03:18:58;;;;;;;101.83;17.13;;;;;;;13.65;48.47;102645.59;5095400;28;20115;-66
2023/01/03 03:28:33;;;;;;;44.80;17.57;;;;;;;13.82;46.59;102629.03;5105300;28;20075;-66
2023/01/03 03:29:57;;;;;;;32.53;16.50;;;;;;;14.10;46.12;102635.31;5110431;27;20023;-67
2023/01/03 03:32:25;;;;;;;30.53;16.70;;;;;;;14.18;46.28;102637.97;5112723;28;20439;-67
2023/01/03 03:34:54;;;;;;;36.33;17.50;;;;;;;13.74;46.97;102627.25;5093757;28;20036;-66
2023/01/03 03:37:24;;;;;;;34.77;18.60;;;;;;;14.00;46.38;102631.75;5114660;27;20027;-66
2023/01/03 03:45:40;;;;;;;;;;;;;;;13.78;46.46;102632.53;5112255;28;20399;-66
2023/01/03 03:48:21;;;;;;;44.93;20.03;;;;;;;14.03;45.95;102634.41;5094763;28;20006;-66
2023/01/03 03:50:56;;;;;;;47.10;19.53;;;;;;;13.33;47.35;102635.72;5098575;28;20443;-67
2023/01/03 03:53:26;;;;;;;49.70;17.77;;;;;;;12.85;48.29;102637.09;5110787;27;20039;-67
2023/01/03 03:55:58;;;;;;;34.17;17.73;;;;;;;13.17;47.79;102642.59;5099034;28;20038;-67
2023/01/03 03:58:31;;;;;;;33.53;19.08;;;;;;;12.99;48.72;102635.44;5093359;28;20498;-67
2023/01/03 04:00:56;;;;;;;36.50;19.02;;;;;;;13.16;47.53;102637.34;5090324;28;20576;-67
2023/01/03 04:03:23;;;;;;;36.77;18.77;;;;;;;12.51;49.72;102648.09;5090236;28;20036;-67
2023/01/03 04:06:03;;;;;;;35.83;18.80;;;;;;;12.50;49.44;102655.97;5098142;28;20027;-67
2023/01/03 04:08:28;;;;;;;37.87;19.87;;;;;;;12.12;51.47;102653.78;5092205;28;20031;-67
2023/01/03 04:11:04;;;;;;;37.87;18.60;;;;;;;12.29;50.61;102652.22;5090214;28;20476;-67
2023/01/03 04:13:31;;;;;;;40.53;19.27;;;;;;;12.16;51.36;102660.84;5089379;28;20031;-67
2023/01/03 04:15:57;;;;;;;44.43;21.73;;;;;;;11.99;51.30;102650.13;5091173;28;20028;-67
2023/01/03 04:18:22;;;;;;;41.43;20.87;;;;;;;12.54;49.58;102653.41;5092278;28;20035;-67
2023/01/03 04:20:47;;;;;;;41.10;20.63;;;;;;;13.00;48.20;102650.34;5099451;28;20034;-66
2023/01/03 04:23:13;;;;;;;41.47;21.53;;;;;;;12.98;48.27;102659.97;5089139;28;20554;-67
2023/01/03 04:25:38;;;;;;;42.00;21.00;;;;;;;12.68;49.13;102656.16;5089786;28;20036;-67
2023/01/03 04:28:04;;;;;;;41.33;20.87;;;;;;;13.00;48.13;102657.34;5089135;28;20028;-67
2023/01/03 04:30:29;;;;;;;43.20;22.10;;;;;;;12.75;47.59;102662.38;5089515;28;20471;-66
2023/01/03 04:32:55;;;;;;;38.07;20.10;;;;;;;12.81;49.02;102658.91;5090459;28;20467;-66
2023/01/03 04:35:20;;;;;;;44.77;21.87;;;;;;;13.20;47.20;102657.50;5105429;28;20524;-67
2023/01/03 04:37:46;;;;;;;34.13;21.17;;;;;;;12.59;48.48;102649.94;5089747;28;20081;-67
2023/01/03 04:40:11;;;;;;;33.43;20.63;;;;;;;12.89;47.89;102644.13;5091402;28;20073;-67
2023/01/03 04:45:20;;;;;;;45.07;22.83;;;;;;;12.85;47.79;102637.94;5091704;28;20140;-67
2023/01/03 04:47:46;;;;;;;34.27;20.20;;;;;;;12.58;47.82;102649.06;5091830;28;20078;-67
2023/01/03 04:50:11;;;;;;;37.23;20.67;;;;;;;12.69;48.01;102642.19;5111919;28;20031;-67
2023/01/03 04:52:37;;;;;;;35.17;19.67;;;;;;;12.60;48.23;102636.84;5088709;28;21058;-67
2023/01/03 04:55:02;;;;;;;46.27;23.80;;;;;;;12.08;49.28;102644.13;5089583;28;20035;-67
2023/01/03 04:57:28;;;;;;;36.20;21.17;;;;;;;12.55;49.01;102639.41;5091296;28;20387;-66
2023/01/03 04:59:53;;;;;;;39.83;21.07;;;;;;;12.78;48.13;102640.53;5090512;28;20403;-67
2023/01/03 05:02:18;;;;;;;40.27;23.13;;;;;;;12.47;49.59;102637.56;5086305;28;20051;-67
2023/01/03 05:04:44;;;;;;;38.23;23.03;;;;;;;12.90;48.32;102632.78;5088385;28;20092;-67
2023/01/03 05:07:09;;;;;;;45.10;25.33;;;;;;;12.96;47.71;102635.44;5091682;28;20035;-67
2023/01/03 05:09:34;;;;;;;45.37;24.87;;;;;;;12.75;48.44;102635.22;5101711;28;20036;-67
2023/01/03 05:12:00;;;;;;;45.97;24.80;;;;;;;13.19;47.11;102634.75;5100398;28;20036;-67
2023/01/03 05:14:25;;;;;;;46.07;26.17;;;;;;;12.78;47.92;102630.91;5088287;28;20152;-67
2023/01/03 05:16:50;;;;;;;53.60;28.03;;;;;;;13.12;46.99;102630.31;5088695;28;20509;-67
2023/01/03 05:19:16;;;;;;;51.00;26.27;;;;;;;12.42;48.51;102627.03;5090327;28;20425;-67
2023/01/03 05:25:48;;;;;;;51.50;26.63;;;;;;;12.54;49.37;102642.00;5103515;28;20107;-66
2023/01/03 05:27:19;;;;;;;46.87;27.40;;;;;;;12.76;48.90;102642.25;5111423;28;20118;-67
2023/01/03 05:29:49;;;;;;;49.47;27.63;;;;;;;12.63;48.67;102641.25;5095959;28;20119;-67
2023/01/03 05:32:15;;;;;;;45.80;27.67;;;;;;;12.70;48.79;102649.19;5087405;28;20027;-67
2023/01/03 05:34:40;;;;;;;62.40;27.33;;;;;;;13.10;47.74;102642.56;5109511;28;20042;-66
2023/01/03 05:37:06;;;;;;;51.27;27.30;;;;;;;12.59;49.09;102629.84;5104009;28;20537;-68
2023/01/03 05:39:31;;;;;;;47.27;26.77;;;;;;;13.03;48.57;102621.47;5090620;28;20503;-67
2023/01/03 05:41:59;;;;;;;48.00;26.77;;;;;;;12.54;50.46;102631.53;5089530;28;20027;-67
2023/01/03 05:44:26;;;;;;;44.53;26.10;;;;;;;12.58;49.49;102628.06;5087686;28;20036;-67
2023/01/03 05:46:52;;;;;;;46.37;27.23;;;;;;;12.07;51.08;102626.63;5088971;28;20028;-67
2023/01/03 05:49:17;;;;;;;42.40;26.83;;;;;;;12.95;49.09;102625.78;5103954;28;20135;-67
2023/01/03 05:51:43;;;;;;;49.90;27.10;;;;;;;13.31;48.94;102621.72;5107624;28;20043;-67
2023/01/03 05:54:13;;;;;;;41.20;26.00;;;;;;;12.99;49.11;102618.84;5091053;28;20032;-67
2023/01/03 05:56:38;;;;;;;45.87;26.23;;;;;;;12.66;49.77;102615.91;5091194;28;20036;-67
2023/01/03 05:59:03;;;;;;;44.97;26.00;;;;;;;12.17;51.55;102615.38;5093411;28;20096;-67
2023/01/03 06:01:29;;;;;;;42.80;24.87;;;;;;;12.38;51.49;102610.38;5106351;28;20055;-67
2023/01/03 06:03:54;;;;;;;46.77;25.73;;;;;;;13.07;50.71;102611.91;5125619;27;20035;-66
2023/01/03 06:06:20;;;;;;;41.67;24.70;;;;;;;13.19;49.73;102611.13;5116536;27;20022;-67
2023/01/03 06:08:45;;;;;;;45.57;25.30;;;;;;;13.83;48.10;102610.63;5116046;27;20043;-67
2023/01/03 06:11:13;;;;;;;38.17;24.20;;;;;;;13.66;48.53;102613.19;5096424;28;20506;-67
2023/01/03 06:13:39;;;;;;;49.17;26.33;;;;;;;13.25;49.38;102608.53;5094551;28;20483;-66
2023/01/03 06:19:04;;;;;;;37.40;21.80;;;;;;;13.74;48.12;102616.75;5128094;27;20126;-67
2023/01/03 06:21:29;;;;;;;39.63;21.23;;;;;;;13.18;49.18;102614.63;5135183;27;20031;-66
2023/01/03 06:23:55;;;;;;;41.70;21.40;;;;;;;13.76;48.41;102608.88;5118790;27;20031;-67
2023/01/03 06:26:22;;;;;;;38.57;20.73;;;;;;;14.45;46.98;102604.72;5113776;28;20035;-67
2023/01/03 06:28:48;;;;;;;33.97;21.60;;;;;;;14.23;47.29;102607.28;5095835;28;20036;-67
2023/01/03 06:31:14;;;;;;;36.10;20.40;;;;;;;14.20;47.06;102599.41;5095421;28;20039;-66
2023/01/03 06:33:40;;;;;;;33.53;20.13;;;;;;;14.57;46.71;102610.00;5108602;27;20080;-66
2023/01/03 06:36:17;;;;;;;26.87;18.07;;;;;;;14.07;47.78;102619.53;5135126;27;20521;-67
2023/01/03 06:38:43;;;;;;;30.30;18.27;;;;;;;12.92;50.46;102628.41;5097591;28;20023;-66
2023/01/03 06:41:08;;;;;;;28.03;17.40;;;;;;;13.57;49.04;102628.91;5094172;28;20047;-66
2023/01/03 06:43:34;;;;;;;34.53;18.93;;;;;;;13.86;48.70;102605.41;5130419;27;20115;-66
2023/01/03 06:54:21;;;;;;;32.23;17.73;;;;;;;14.49;48.48;102632.78;5113712;28;20504;-66
2023/01/03 06:56:46;;;;;;;28.42;17.80;;;;;;;14.13;48.95;102629.19;5096102;28;20498;-66
2023/01/03 06:59:11;;;;;;;29.53;18.70;;;;;;;13.95;49.70;102620.34;5095203;28;20035;-66
2023/01/03 07:01:38;;;;;;;36.23;18.77;;;;;;;13.84;50.60;102622.06;5113540;27;20063;-66
2023/01/03 07:04:03;;;;;;;28.50;18.00;;;;;;;13.45;51.06;102610.44;5116190;27;20443;-67
2023/01/03 07:06:29;;;;;;;29.00;17.73;;;;;;;11.97;55.28;102613.41;5115604;27;20023;-66
2023/01/03 07:08:54;;;;;;;28.13;17.73;;;;;;;12.78;54.19;102603.78;5096556;28;20394;-66
2023/01/03 07:11:22;;;;;;;30.87;17.57;;;;;;;12.89;54.37;102597.75;5095457;28;20076;-66
2023/01/03 07:13:58;;;;;;;31.30;17.30;;;;;;;12.89;52.87;102599.50;5114164;28;20130;-66
2023/01/03 07:16:30;;;;;;;31.27;18.47;;;;;;;13.48;51.17;102598.22;5093626;27;20185;-66
2023/01/03 07:18:56;;;;;;;29.53;18.27;;;;;;;14.29;49.63;102595.91;5097968;28;20028;-66
2023/01/03 07:21:23;;;;;;;34.43;18.80;;;;;;;13.59;51.54;102590.41;5095549;28;20023;-67
2023/01/03 07:23:51;;;;;;;29.37;18.47;;;;;;;14.45;48.57;102599.47;5113228;28;20046;-67
2023/01/03 07:26:16;;;;;;;34.97;18.40;;;;;;;14.42;48.20;102613.47;5095250;28;20546;-66
2023/01/03 07:28:42;;;;;;;32.33;18.57;;;;;;;13.78;51.10;102622.00;5092698;28;20114;-66
2023/01/03 07:31:07;;;;;;;29.13;18.30;;;;;;;13.83;50.36;102630.81;5098254;27;20478;-67
2023/01/03 07:33:33;;;;;;;30.47;17.73;;;;;;;13.89;49.97;102620.34;5115484;27;20023;-67
2023/01/03 07:36:04;;;;;;;32.77;18.50;;;;;;;14.04;49.71;102624.75;5133795;27;20019;-66
2023/01/03 07:38:29;;;;;;;32.93;18.97;;;;;;;14.26;49.61;102625.72;5120860;27;20114;-67
2023/01/03 07:40:56;;;;;;;35.73;19.20;;;;;;;13.50;50.89;102629.75;5094937;28;20453;-66
2023/01/03 07:43:37;;;;;;;33.67;19.77;;;;;;;14.49;49.87;102627.53;5094245;28;20123;-67
2023/01/03 07:46:15;;;;;;;35.13;17.97;;;;;;;14.43;49.82;102631.91;5092730;27;20079;-67
2023/01/03 07:48:42;;;;;;;37.40;18.10;;;;;;;14.94;48.60;102639.03;5094325;28;20036;-67
2023/01/03 07:51:09;;;;;;;28.83;17.53;;;;;;;14.59;49.16;102629.31;5093600;28;20026;-67
2023/01/03 07:53:35;;;;;;;30.97;17.43;;;;;;;14.30;50.88;102622.25;5110682;28;20028;-67
2023/01/03 07:56:15;;;;;;;33.60;17.20;;;;;;;15.09;48.75;102630.25;5103154;28;20053;-67
2023/01/03 07:58:42;;;;;;;34.10;17.17;;;;;;;14.27;50.69;102622.19;5111880;27;20121;-66
2023/01/03 08:01:15;;;;;;;34.20;18.03;;;;;;;13.63;52.04;102628.94;5097818;28;20054;-67
2023/01/03 08:03:41;;;;;;;30.43;17.47;;;;;;;14.16;51.21;102629.19;5094999;28;20084;-67
2023/01/03 08:06:10;;;;;;;33.83;17.87;;;;;;;14.48;51.13;102628.41;5094438;28;20028;-67
2023/01/03 08:08:35;;;;;;;29.63;16.90;;;;;;;14.16;51.95;102634.44;5109806;28;20075;-67
2023/01/03 08:13:45;;;;;;;34.80;17.97;;;;;;;14.97;49.35;102625.84;5111998;28;20085;-67
2023/01/03 08:16:14;;;;;;;29.57;16.43;;;;;;;14.91;50.09;102631.13;5100329;27;20027;-67
2023/01/03 08:18:41;;;;;;;28.93;16.60;;;;;;;15.23;48.58;102625.84;5091791;28;20411;-67
2023/01/03 08:21:08;;;;;;;38.87;18.00;;;;;;;15.38;48.52;102631.97;5093657;28;20497;-67
2023/01/03 08:23:34;;;;;;;29.63;16.17;;;;;;;14.45;50.59;102625.75;5103191;27;20031;-67
2023/01/03 08:26:05;;;;;;;32.77;16.77;;;;;;;14.81;50.82;102629.34;5132887;27;20095;-67
2023/01/03 08:28:31;;;;;;;34.53;17.03;;;;;;;14.31;52.20;102631.88;5104772;28;20116;-67
2023/01/03 08:30:58;;;;;;;35.40;17.07;;;;;;;14.55;50.71;102632.81;5111372;27;20062;-66
2023/01/03 08:33:27;;;;;;;31.57;15.47;;;;;;;14.16;53.09;102634.44;5115191;27;20031;-66
2023/01/03 08:35:59;;;;;;;32.67;18.20;;;;;;;14.80;52.17;102632.88;5093469;28;20023;-66
2023/01/03 08:38:29;;;;;;;32.15;16.63;;;;;;;14.14;53.19;102638.84;5079778;28;20462;-67
2023/01/03 08:40:56;;;;;;;34.23;17.97;;;;;;;14.43;53.14;102637.16;5110272;28;20031;-66
2023/01/03 08:43:22;;;;;;;30.83;17.27;;;;;;;13.72;54.44;102650.03;5093172;28;20439;-67
2023/01/03 08:45:48;;;;;;;34.00;17.70;;;;;;;13.54;56.37;102639.41;5088939;28;20024;-67
2023/01/03 08:48:15;;;;;;;37.57;17.50;;;;;;;13.83;55.68;102636.06;5090969;28;20023;-67
2023/01/03 08:50:40;;;;;;;52.90;25.80;;;;;;;14.08;54.96;102627.41;5093794;28;20024;-67
2023/01/03 08:53:06;;;;;;;35.43;18.20;;;;;;;14.07;54.99;102630.91;5092389;28;20147;-67
2023/01/03 08:55:32;;;;;;;38.57;19.47;;;;;;;13.84;56.22;102632.56;5087525;28;20016;-67
2023/01/03 08:57:59;;;;;;;39.97;21.23;;;;;;;14.62;53.81;102631.94;5093693;28;20039;-67
2023/01/03 09:00:25;;;;;;;41.90;21.13;;;;;;;14.62;53.94;102629.31;5094591;28;20054;-66
2023/01/03 09:02:50;;;;;;;46.33;22.33;;;;;;;14.01;55.35;102632.63;5124403;27;20042;-67
2023/01/03 09:05:16;;;;;;;48.97;22.90;;;;;;;13.59;58.17;102621.91;5109578;28;20024;-67
2023/01/03 09:07:42;;;;;;;49.87;23.00;;;;;;;14.55;55.15;102627.56;5111700;28;20089;-67
2023/01/03 09:10:08;;;;;;;48.13;24.10;;;;;;;13.56;58.13;102632.41;5094245;27;20680;-67
2023/01/03 09:12:34;;;;;;;50.10;25.20;;;;;;;14.72;55.99;102633.72;5113648;27;20027;-67
2023/01/03 09:14:59;;;;;;;52.87;23.00;;;;;;;14.19;56.60;102626.56;5087259;28;20475;-67
2023/01/03 09:17:24;;;;;;;51.43;23.20;;;;;;;14.15;55.97;102622.16;5110191;28;20036;-67
2023/01/03 09:19:50;;;;;;;49.20;24.67;;;;;;;13.89;58.51;102630.84;5110315;28;20381;-67
2023/01/03 09:22:15;;;;;;;49.43;24.43;;;;;;;14.41;55.47;102625.75;5107611;28;20031;-67
2023/01/03 09:24:40;;;;;;;50.13;24.17;;;;;;;14.73;55.03;102627.59;5091968;28;20122;-67
2023/01/03 09:27:06;;;;;;;54.03;25.67;;;;;;;13.97;57.89;102633.50;5111853;27;20387;-67
2023/01/03 09:29:31;;;;;;;49.50;24.13;;;;;;;13.61;57.64;102635.94;5091623;28;20035;-66
2023/01/03 09:31:59;;;;;;;50.23;24.00;;;;;;;14.44;57.07;102635.41;5093280;28;20031;-69
2023/01/03 09:34:25;;;;;;;54.37;26.30;;;;;;;14.30;56.26;102630.13;5104335;27;20041;-67
2023/01/03 09:36:50;;;;;;;57.90;25.80;;;;;;;14.93;55.78;102625.00;5107698;28;20114;-67
2023/01/03 09:39:15;;;;;;;57.03;26.10;;;;;;;14.26;57.10;102628.38;5091037;28;20028;-67
2023/01/03 09:41:42;;;;;;;64.53;26.03;;;;;;;14.55;56.79;102627.56;5091900;28;20077;-66
2023/01/03 09:44:08;;;;;;;55.77;25.90;;;;;;;14.39;56.38;102626.63;5111121;28;20347;-67
2023/01/03 09:46:34;;;;;;;59.00;27.10;;;;;;;15.30;54.64;102628.47;5093320;27;20023;-67
2023/01/03 09:49:01;;;;;;;66.30;27.80;;;;;;;15.49;54.47;102629.34;5112749;27;20118;-67
2023/01/03 10:06:07;;;;;;;;;;;;;;;15.05;56.66;102647.81;5129553;28;20041;-67
2023/01/03 10:08:40;;;;;;;55.33;26.10;;;;;;;15.18;56.15;102650.44;5092012;28;20435;-67
2023/01/03 10:11:24;;;;;;;54.47;27.27;;;;;;;15.33;55.34;102652.19;5090636;28;20114;-67
2023/01/03 10:14:02;;;;;;;55.63;25.67;;;;;;;15.08;55.86;102645.19;5110898;28;20058;-67
2023/01/03 10:16:40;;;;;;;49.47;24.30;;;;;;;14.68;58.13;102645.13;5089815;28;20032;-67
2023/01/03 10:19:33;;;;;;;56.50;26.17;;;;;;;14.60;57.70;102641.56;5108699;28;20065;-67
2023/01/03 10:22:12;;;;;;;51.72;23.75;;;;;;;15.37;56.28;102641.66;5083250;28;20023;-67
2023/01/03 10:24:45;;;;;;;51.37;24.37;;;;;;;15.19;56.02;102633.75;5091638;28;20031;-67
2023/01/03 10:27:17;;;;;;;57.53;24.03;;;;;;;15.42;54.93;102639.00;5091234;28;20085;-67
2023/01/03 10:29:45;;;;;;;54.17;22.73;;;;;;;15.54;56.53;102635.47;5091193;28;20811;-67
2023/01/03 10:32:45;;;;;;;47.37;21.70;;;;;;;15.81;55.59;102638.94;5105314;28;20051;-67
2023/01/03 10:35:30;;;;;;;56.17;23.13;;;;;;;15.39;55.75;102639.88;5090717;28;20366;-67
2023/01/03 10:37:57;;;;;;;56.33;23.63;;;;;;;14.94;59.42;102649.56;5098841;28;20123;-68
2023/01/03 10:40:44;;;;;;;50.77;22.67;;;;;;;15.91;56.12;102648.59;5090525;28;20020;-67
2023/01/03 10:43:56;;;;;;;60.57;22.93;;;;;;;15.81;55.41;102642.44;5113070;28;20482;-68
2023/01/03 10:46:21;;;;;;;50.00;21.60;;;;;;;15.47;55.38;102642.53;5028217;28;20038;-68
2023/01/03 10:48:52;;;;;;;51.90;21.93;;;;;;;15.66;55.72;102642.47;5085856;28;20034;-68
2023/01/03 10:51:27;;;;;;;48.33;22.67;;;;;;;15.28;56.50;102644.28;5114176;28;20019;-68
2023/01/03 10:53:56;;;;;;;45.00;20.80;;;;;;;14.88;58.87;102652.22;5115265;27;20050;-67
2023/01/03 10:56:23;;;;;;;45.53;20.47;;;;;;;14.91;59.30;102642.53;5093416;28;20028;-68
2023/01/03 10:59:15;;;;;;;37.93;20.33;;;;;;;16.10;54.82;102634.44;5113952;28;20019;-68
2023/01/03 11:02:07;;;;;;;42.33;19.83;;;;;;;15.92;55.27;102634.50;5085211;28;20048;-68
2023/01/03 11:04:34;;;;;;;40.43;19.10;;;;;;;15.67;56.32;102634.53;5095740;27;20043;-67
2023/01/03 11:07:02;;;;;;;44.23;20.43;;;;;;;14.96;58.27;102628.50;5118641;27;20103;-68
2023/01/03 11:09:34;;;;;;;41.77;18.63;;;;;;;15.06;57.47;102627.63;5106901;28;20486;-68
2023/01/03 11:12:13;;;;;;;45.80;21.30;;;;;;;16.28;55.40;102619.41;5088604;28;20382;-68
2023/01/03 11:14:48;;;;;;;41.33;18.47;;;;;;;16.08;54.29;102619.50;5093701;28;20032;-68
2023/01/03 11:17:17;;;;;;;34.20;19.17;;;;;;;15.54;55.38;102622.31;5113144;28;20067;-67
2023/01/03 11:19:44;;;;;;;40.53;17.80;;;;;;;14.67;58.64;102632.88;5111014;28;20024;-67
2023/01/03 11:22:19;;;;;;;38.73;17.93;;;;;;;16.72;53.06;102617.34;5092664;28;20081;-68
2023/01/03 11:25:21;;;;;;;32.03;16.87;;;;;;;15.51;53.41;102614.38;5092392;28;20490;-67
2023/01/03 11:28:15;;;;;;;30.60;17.20;;;;;;;15.62;56.58;102623.16;5095243;28;20042;-67
2023/01/03 11:30:56;;;;;;;26.90;16.07;;;;;;;16.46;53.09;102607.88;5110588;27;20030;-68
2023/01/03 11:33:35;;;;;;;29.07;15.70;;;;;;;15.91;54.55;102601.13;5112781;28;20039;-68
2023/01/03 11:36:33;;;;;;;36.37;15.27;;;;;;;16.42;53.01;102599.06;5099923;27;20221;-68
2023/01/03 11:39:01;;;;;;;28.77;14.53;;;;;;;15.75;54.92;102597.63;5099800;27;20039;-67
2023/01/03 11:41:48;;;;;;;24.90;13.93;;;;;;;15.32;55.98;102606.53;5130564;27;20022;-68
2023/01/03 11:44:26;;;;;;;24.50;13.73;;;;;;;16.17;53.58;102597.47;5090049;28;20483;-67
2023/01/03 11:47:10;;;;;;;28.17;15.13;;;;;;;15.38;54.73;102595.97;5108540;28;20061;-67
2023/01/03 11:50:06;;;;;;;20.27;13.70;;;;;;;15.72;55.46;102593.25;5088068;28;20034;-67
2023/01/03 11:52:34;;;;;;;24.30;12.70;;;;;;;15.49;55.57;102576.63;5085824;28;20039;-67
2023/01/03 11:55:37;;;;;;;24.53;12.07;;;;;;;15.84;54.11;102583.56;5108207;27;20374;-67
2023/01/03 11:58:33;;;;;;;21.10;12.45;;;;;;;15.76;55.37;102575.66;5073562;28;20082;-68
2023/01/03 12:01:25;;;;;;;23.90;11.23;;;;;;;14.80;57.01;102574.97;5074072;28;20405;-68
2023/01/03 12:04:22;;;;;;;25.93;12.00;;;;;;;15.27;55.01;102574.03;5084896;27;20308;-67
2023/01/03 12:07:09;;;;;;;22.53;11.17;;;;;;;16.51;53.42;102570.88;5109117;27;20341;-68
2023/01/03 12:09:43;;;;;;;22.27;10.73;;;;;;;16.50;52.60;102575.28;5093843;28;20492;-68
2023/01/03 12:12:21;;;;;;;20.50;10.03;;;;;;;14.95;56.75;102569.69;5092201;28;20027;-68
2023/01/03 12:14:52;;;;;;;18.07;10.80;;;;;;;16.05;53.98;102551.81;5090757;28;20026;-67
2023/01/03 12:17:24;;;;;;;18.77;11.03;;;;;;;16.41;52.12;102557.72;5096737;27;20023;-68
2023/01/03 12:19:58;;;;;;;19.40;11.20;;;;;;;16.11;52.55;102551.78;5115286;27;20383;-68